createdAt,value
2017-10-27T00:00:35.882Z,13.50
2017-10-27T00:01:38.415Z,13.50
2017-10-27T00:02:40.981Z,13.50
2017-10-27T00:03:43.514Z,13.50
2017-10-27T00:04:46.050Z,13.50
2017-10-27T00:05:48.586Z,13.50
2017-10-27T00:06:51.882Z,13.50
2017-10-27T00:07:54.477Z,13.50
2017-10-27T00:08:56.998Z,13.50
2017-10-27T00:09:59.548Z,13.50
2017-10-27T00:11:02.081Z,13.50
2017-10-27T00:12:04.622Z,13.50
2017-10-27T00:13:07.217Z,13.50
2017-10-27T00:14:09.744Z,13.50
2017-10-27T00:15:13.040Z,13.40
2017-10-27T00:16:15.562Z,13.40
2017-10-27T00:17:18.093Z,13.40
2017-10-27T00:18:20.658Z,13.40
2017-10-27T00:19:23.196Z,13.40
2017-10-27T00:20:25.736Z,13.40
2017-10-27T00:21:28.263Z,13.40
2017-10-27T00:22:30.791Z,13.50
2017-10-27T00:23:34.139Z,13.40
2017-10-27T00:24:36.681Z,13.40
2017-10-27T00:25:39.218Z,13.50
2017-10-27T00:26:41.774Z,13.40
2017-10-27T00:27:45.061Z,13.40
2017-10-27T00:28:48.465Z,13.40
2017-10-27T00:29:51.010Z,13.40
2017-10-27T00:30:54.311Z,13.40
2017-10-27T00:31:56.830Z,13.40
2017-10-27T00:32:59.400Z,13.40
2017-10-27T00:34:01.924Z,13.40
2017-10-27T00:35:04.452Z,13.40
2017-10-27T00:36:07.769Z,13.40
2017-10-27T00:37:10.298Z,13.40
2017-10-27T00:38:13.734Z,13.40
2017-10-27T00:39:16.279Z,13.30
2017-10-27T00:40:18.806Z,13.40
2017-10-27T00:41:21.330Z,13.40
2017-10-27T00:42:24.011Z,13.40
2017-10-27T00:43:26.578Z,13.40
2017-10-27T00:44:29.098Z,13.40
2017-10-27T00:45:31.648Z,13.40
2017-10-27T00:46:34.948Z,13.40
2017-10-27T00:47:38.228Z,13.30
2017-10-27T00:48:41.542Z,13.30
2017-10-27T00:49:44.077Z,13.30
2017-10-27T00:50:47.378Z,13.30
2017-10-27T00:51:49.906Z,13.30
2017-10-27T00:52:52.439Z,13.30
2017-10-27T00:53:55.018Z,13.20
2017-10-27T00:54:57.551Z,13.20
2017-10-27T00:56:00.078Z,13.20
2017-10-27T00:57:03.381Z,13.20
2017-10-27T00:58:05.913Z,13.20
2017-10-27T00:59:08.474Z,13.30
2017-10-27T01:00:10.995Z,13.30
2017-10-27T01:01:13.528Z,13.30
2017-10-27T01:02:16.823Z,13.20
2017-10-27T01:03:19.348Z,13.20
2017-10-27T01:04:21.914Z,13.20
2017-10-27T01:05:24.442Z,13.20
2017-10-27T01:06:26.978Z,13.20
2017-10-27T01:07:30.436Z,13.20
2017-10-27T01:08:32.960Z,13.20
2017-10-27T01:09:35.574Z,13.10
2017-10-27T01:10:38.113Z,13.10
2017-10-27T01:11:40.647Z,13.10
2017-10-27T01:12:43.175Z,13.10
2017-10-27T01:13:45.703Z,13.10
2017-10-27T01:14:48.262Z,13.10
2017-10-27T01:15:50.784Z,13.10
2017-10-27T01:16:53.314Z,13.10
2017-10-27T01:17:55.842Z,13.10
2017-10-27T01:18:58.365Z,13.10
2017-10-27T01:20:00.992Z,13.10
2017-10-27T01:21:03.510Z,13.10
2017-10-27T01:22:06.038Z,13.10
2017-10-27T01:23:08.568Z,13.20
2017-10-27T01:24:11.866Z,13.10
2017-10-27T01:25:14.431Z,13.10
2017-10-27T01:26:16.947Z,13.10
2017-10-27T01:27:19.488Z,13.10
2017-10-27T01:28:22.006Z,13.10
2017-10-27T01:29:25.298Z,13.10
2017-10-27T01:30:28.656Z,13.10
2017-10-27T01:31:31.189Z,13.10
2017-10-27T01:32:33.737Z,13.10
2017-10-27T01:33:36.266Z,13.10
2017-10-27T01:34:39.568Z,13.10
2017-10-27T01:35:42.146Z,13.10
2017-10-27T01:36:44.678Z,13.20
2017-10-27T01:37:47.217Z,13.10
2017-10-27T01:38:49.739Z,13.10
2017-10-27T01:39:52.266Z,13.10
2017-10-27T01:40:54.839Z,13.10
2017-10-27T01:41:58.143Z,13.10
2017-10-27T01:43:01.451Z,13.10
2017-10-27T01:44:03.978Z,13.10
2017-10-27T01:45:06.494Z,13.10
2017-10-27T01:46:09.060Z,13.10
2017-10-27T01:47:11.588Z,13.00
2017-10-27T01:48:14.873Z,12.90
2017-10-27T01:49:18.168Z,12.80
2017-10-27T01:50:20.694Z,12.80
2017-10-27T01:51:23.304Z,12.90
2017-10-27T01:52:25.833Z,12.80
2017-10-27T01:53:28.356Z,12.80
2017-10-27T01:54:30.936Z,12.70
2017-10-27T01:55:33.509Z,12.80
2017-10-27T01:56:36.139Z,12.70
2017-10-27T01:57:38.668Z,12.70
2017-10-27T01:58:41.194Z,12.80
2017-10-27T01:59:43.723Z,12.80
2017-10-27T02:00:47.018Z,12.70
2017-10-27T02:01:49.622Z,12.70
2017-10-27T02:02:52.909Z,12.60
2017-10-27T02:03:55.424Z,12.50
2017-10-27T02:04:58.718Z,12.40
2017-10-27T02:06:01.252Z,12.40
2017-10-27T02:07:04.586Z,12.40
2017-10-27T02:08:07.109Z,12.40
2017-10-27T02:09:10.396Z,12.40
2017-10-27T02:10:13.833Z,12.40
2017-10-27T02:11:16.351Z,12.40
2017-10-27T02:12:19.637Z,12.40
2017-10-27T02:13:22.933Z,12.40
2017-10-27T02:14:26.217Z,12.30
2017-10-27T02:15:28.783Z,12.30
2017-10-27T02:16:31.325Z,12.30
2017-10-27T02:17:33.855Z,12.40
2017-10-27T02:18:36.381Z,12.40
2017-10-27T02:19:39.662Z,12.40
2017-10-27T02:20:42.982Z,12.40
2017-10-27T02:21:45.506Z,12.40
2017-10-27T02:22:48.786Z,12.50
2017-10-27T02:23:52.086Z,12.40
2017-10-27T02:24:54.616Z,12.40
2017-10-27T02:25:57.177Z,12.50
2017-10-27T02:26:59.717Z,12.50
2017-10-27T02:28:02.248Z,12.60
2017-10-27T02:29:04.775Z,12.50
2017-10-27T02:30:07.315Z,12.40
2017-10-27T02:31:09.889Z,12.50
2017-10-27T02:32:12.411Z,12.60
2017-10-27T02:33:14.942Z,12.60
2017-10-27T02:34:17.465Z,12.50
2017-10-27T02:35:20.003Z,12.50
2017-10-27T02:36:23.327Z,12.40
2017-10-27T02:37:25.859Z,12.40
2017-10-27T02:38:28.392Z,12.40
2017-10-27T02:39:30.916Z,12.40
2017-10-27T02:40:33.438Z,12.40
2017-10-27T02:41:36.765Z,12.50
2017-10-27T02:42:39.298Z,12.50
2017-10-27T02:43:42.582Z,12.40
2017-10-27T02:44:45.867Z,12.40
2017-10-27T02:45:49.152Z,12.40
2017-10-27T02:46:52.484Z,12.30
2017-10-27T02:47:54.996Z,12.30
2017-10-27T02:48:58.281Z,12.30
2017-10-27T02:50:01.583Z,12.30
2017-10-27T02:51:04.101Z,12.30
2017-10-27T02:52:06.669Z,12.30
2017-10-27T02:53:09.191Z,12.40
2017-10-27T02:54:11.722Z,12.30
2017-10-27T02:55:15.015Z,12.20
2017-10-27T02:56:18.301Z,12.30
2017-10-27T02:57:21.628Z,12.30
2017-10-27T02:58:24.136Z,12.30
2017-10-27T02:59:27.427Z,12.30
2017-10-27T03:00:30.841Z,12.30
2017-10-27T03:01:33.359Z,12.30
2017-10-27T03:02:36.078Z,12.40
2017-10-27T03:03:38.603Z,12.40
2017-10-27T03:04:41.886Z,12.40
2017-10-27T03:05:44.412Z,12.40
2017-10-27T03:06:46.929Z,12.30
2017-10-27T03:07:50.257Z,12.40
2017-10-27T03:08:52.781Z,12.40
2017-10-27T03:09:56.076Z,12.40
2017-10-27T03:10:58.597Z,12.40
2017-10-27T03:12:01.122Z,12.40
2017-10-27T03:13:03.699Z,12.30
2017-10-27T03:14:06.214Z,12.40
2017-10-27T03:15:08.753Z,12.30
2017-10-27T03:16:11.284Z,12.20
2017-10-27T03:17:13.803Z,12.20
2017-10-27T03:18:16.491Z,12.20
2017-10-27T03:19:19.023Z,12.30
2017-10-27T03:20:21.554Z,12.30
2017-10-27T03:21:24.078Z,12.30
2017-10-27T03:22:27.365Z,12.30
2017-10-27T03:23:30.690Z,12.30
2017-10-27T03:24:33.973Z,12.30
2017-10-27T03:25:36.490Z,12.30
2017-10-27T03:26:39.006Z,12.40
2017-10-27T03:27:41.516Z,12.40
2017-10-27T03:28:44.085Z,12.40
2017-10-27T03:29:46.616Z,12.40
2017-10-27T03:30:49.145Z,12.40
2017-10-27T03:31:51.665Z,12.40
2017-10-27T03:32:54.185Z,12.30
2017-10-27T03:33:56.758Z,12.30
2017-10-27T03:34:59.275Z,12.30
2017-10-27T03:36:01.809Z,12.30
2017-10-27T03:37:04.324Z,12.20
2017-10-27T03:38:07.623Z,12.20
2017-10-27T03:39:10.942Z,12.20
2017-10-27T03:40:13.470Z,12.20
2017-10-27T03:41:16.760Z,12.30
2017-10-27T03:42:19.282Z,12.30
2017-10-27T03:43:21.797Z,12.20
2017-10-27T03:44:24.364Z,12.20
2017-10-27T03:45:26.882Z,12.30
2017-10-27T03:46:29.405Z,12.30
2017-10-27T03:47:31.929Z,12.20
2017-10-27T03:48:34.461Z,12.10
2017-10-27T03:49:37.014Z,12.10
2017-10-27T03:50:39.533Z,12.10
2017-10-27T03:51:42.826Z,12.20
2017-10-27T03:52:46.128Z,12.20
2017-10-27T03:53:48.654Z,12.20
2017-10-27T03:54:51.218Z,12.20
2017-10-27T03:55:53.736Z,12.20
2017-10-27T03:56:56.258Z,12.20
2017-10-27T03:57:58.810Z,12.20
2017-10-27T03:59:01.344Z,12.30
2017-10-27T04:00:03.916Z,12.30
2017-10-27T04:01:06.450Z,12.30
2017-10-27T04:02:09.090Z,12.30
2017-10-27T04:03:11.611Z,12.30
2017-10-27T04:04:14.140Z,12.40
2017-10-27T04:05:17.450Z,12.30
2017-10-27T04:06:20.061Z,12.30
2017-10-27T04:07:22.625Z,12.30
2017-10-27T04:08:25.148Z,12.30
2017-10-27T04:09:27.701Z,12.30
2017-10-27T04:10:30.231Z,12.30
2017-10-27T04:11:32.787Z,12.30
2017-10-27T04:12:35.320Z,12.30
2017-10-27T04:14:54.958Z,12.20
2017-10-27T04:15:58.250Z,12.30
2017-10-27T04:17:01.541Z,12.30
2017-10-27T04:18:04.067Z,12.30
2017-10-27T04:19:06.644Z,12.30
2017-10-27T04:20:09.168Z,12.30
2017-10-27T04:21:11.714Z,12.20
2017-10-27T04:22:14.238Z,12.20
2017-10-27T04:23:17.552Z,12.20
2017-10-27T04:24:20.115Z,12.20
2017-10-27T04:25:22.638Z,12.20
2017-10-27T04:26:25.196Z,12.20
2017-10-27T04:27:27.714Z,12.10
2017-10-27T04:28:31.001Z,12.20
2017-10-27T04:29:33.546Z,12.20
2017-10-27T04:30:36.883Z,12.20
2017-10-27T04:31:39.410Z,12.20
2017-10-27T04:32:42.690Z,12.20
2017-10-27T04:33:46.001Z,12.20
2017-10-27T04:34:48.529Z,12.20
2017-10-27T04:35:51.862Z,12.20
2017-10-27T04:36:54.381Z,12.20
2017-10-27T04:37:57.666Z,12.10
2017-10-27T04:39:00.980Z,12.10
2017-10-27T04:40:03.514Z,12.10
2017-10-27T04:41:06.841Z,12.10
2017-10-27T04:42:09.368Z,12.10
2017-10-27T04:43:12.658Z,12.10
2017-10-27T04:44:15.937Z,12.10
2017-10-27T04:45:19.214Z,12.10
2017-10-27T04:46:22.519Z,12.20
2017-10-27T04:47:25.050Z,12.10
2017-10-27T04:48:27.730Z,12.10
2017-10-27T04:49:31.021Z,12.10
2017-10-27T04:50:34.307Z,12.10
2017-10-27T04:51:37.621Z,12.00
2017-10-27T04:52:40.162Z,12.10
2017-10-27T04:53:42.729Z,12.10
2017-10-27T04:54:46.015Z,12.10
2017-10-27T04:55:49.301Z,12.10
2017-10-27T04:56:54.737Z,12.10
2017-10-27T04:57:57.278Z,12.10
2017-10-27T04:58:59.843Z,12.10
2017-10-27T05:00:02.361Z,12.00
2017-10-27T05:01:04.878Z,12.00
2017-10-27T05:02:07.421Z,12.10
2017-10-27T05:03:09.986Z,12.10
2017-10-27T05:04:12.534Z,12.00
2017-10-27T05:05:15.065Z,12.00
2017-10-27T05:06:17.597Z,12.00
2017-10-27T05:07:20.129Z,12.10
2017-10-27T05:08:22.650Z,12.10
2017-10-27T05:09:25.971Z,12.10
2017-10-27T05:10:28.509Z,12.00
2017-10-27T05:11:31.029Z,12.00
2017-10-27T05:12:33.550Z,12.00
2017-10-27T05:13:36.077Z,12.00
2017-10-27T05:14:38.663Z,12.00
2017-10-27T05:15:41.954Z,12.00
2017-10-27T05:16:51.054Z,12.00
2017-10-27T05:17:59.298Z,12.00
2017-10-27T05:19:07.537Z,12.10
2017-10-27T05:20:15.745Z,12.00
2017-10-27T05:21:23.970Z,12.00
2017-10-27T05:22:32.955Z,12.00
2017-10-27T05:23:41.239Z,12.00
2017-10-27T05:24:43.829Z,12.00
2017-10-27T05:25:46.350Z,11.90
2017-10-27T05:26:48.909Z,11.90
2017-10-27T05:27:51.430Z,11.90
2017-10-27T05:28:53.968Z,11.90
2017-10-27T05:29:56.494Z,11.80
2017-10-27T05:30:59.042Z,11.90
2017-10-27T05:32:02.329Z,11.90
2017-10-27T05:33:05.616Z,11.90
2017-10-27T05:34:08.911Z,11.90
2017-10-27T05:35:11.465Z,11.90
2017-10-27T05:36:14.001Z,11.90
2017-10-27T05:37:16.549Z,11.90
2017-10-27T05:38:19.108Z,11.80
2017-10-27T05:39:21.642Z,11.80
2017-10-27T05:40:24.246Z,11.80
2017-10-27T05:41:26.770Z,11.80
2017-10-27T05:42:29.302Z,11.70
2017-10-27T05:43:31.843Z,11.70
2017-10-27T05:44:34.362Z,11.70
2017-10-27T05:45:37.650Z,11.70
2017-10-27T05:46:40.231Z,11.70
2017-10-27T05:47:42.747Z,11.70
2017-10-27T05:48:45.270Z,11.70
2017-10-27T05:49:47.781Z,11.70
2017-10-27T05:50:50.302Z,11.70
2017-10-27T05:51:52.850Z,11.80
2017-10-27T05:52:55.387Z,11.70
2017-10-27T05:53:57.942Z,11.70
2017-10-27T05:55:00.460Z,11.70
2017-10-27T05:56:02.986Z,11.70
2017-10-27T05:57:06.318Z,11.70
2017-10-27T05:58:08.846Z,11.70
2017-10-27T05:59:12.129Z,11.70
2017-10-27T06:00:15.458Z,11.70
2017-10-27T06:01:17.975Z,11.60
2017-10-27T06:02:21.270Z,11.80
2017-10-27T06:03:24.570Z,11.70
2017-10-27T06:04:27.137Z,11.70
2017-10-27T06:05:29.666Z,11.70
2017-10-27T06:06:32.178Z,11.80
2017-10-27T06:07:34.695Z,11.80
2017-10-27T06:08:37.226Z,11.80
2017-10-27T06:09:39.766Z,11.80
2017-10-27T06:10:42.279Z,11.80
2017-10-27T06:11:44.793Z,11.80
2017-10-27T06:12:47.318Z,11.80
2017-10-27T06:13:49.850Z,11.80
2017-10-27T06:14:52.407Z,11.70
2017-10-27T06:15:54.922Z,11.80
2017-10-27T06:16:57.449Z,11.80
2017-10-27T06:17:59.973Z,11.70
2017-10-27T06:19:03.266Z,11.70
2017-10-27T06:20:06.589Z,11.70
2017-10-27T06:21:09.106Z,11.70
2017-10-27T06:22:12.425Z,11.70
2017-10-27T06:23:14.939Z,11.70
2017-10-27T06:24:17.490Z,11.80
2017-10-27T06:25:20.068Z,11.80
2017-10-27T06:26:22.602Z,11.80
2017-10-27T06:27:25.127Z,11.70
2017-10-27T06:28:28.410Z,11.80
2017-10-27T06:29:31.698Z,11.80
2017-10-27T06:30:34.281Z,11.80
2017-10-27T06:31:36.803Z,11.80
2017-10-27T06:32:39.323Z,11.80
2017-10-27T06:33:41.838Z,11.80
2017-10-27T06:34:44.353Z,11.70
2017-10-27T06:35:46.909Z,11.60
2017-10-27T06:36:49.426Z,11.60
2017-10-27T06:37:51.949Z,11.60
2017-10-27T06:38:54.526Z,11.60
2017-10-27T06:39:57.043Z,11.60
2017-10-27T06:41:00.337Z,11.50
2017-10-27T06:42:02.865Z,11.50
2017-10-27T06:43:05.391Z,11.50
2017-10-27T06:44:07.946Z,11.50
2017-10-27T06:45:10.467Z,11.50
2017-10-27T06:46:12.995Z,11.50
2017-10-27T06:47:15.511Z,11.50
2017-10-27T06:48:18.042Z,11.50
2017-10-27T06:49:20.598Z,11.50
2017-10-27T06:50:23.157Z,11.40
2017-10-27T06:51:25.677Z,11.40
2017-10-27T06:52:28.203Z,11.40
2017-10-27T06:53:30.726Z,11.40
2017-10-27T06:54:34.094Z,11.40
2017-10-27T06:55:36.655Z,11.30
2017-10-27T06:56:39.204Z,11.30
2017-10-27T06:57:42.491Z,11.30
2017-10-27T06:58:45.773Z,11.30
2017-10-27T06:59:48.298Z,11.30
2017-10-27T07:00:50.812Z,11.40
2017-10-27T07:01:53.353Z,11.40
2017-10-27T07:02:55.875Z,11.40
2017-10-27T07:03:59.165Z,11.50
2017-10-27T07:05:01.685Z,11.50
2017-10-27T07:06:04.230Z,11.50
2017-10-27T07:07:06.755Z,11.50
2017-10-27T07:08:10.047Z,11.50
2017-10-27T07:09:12.565Z,11.50
2017-10-27T07:10:15.097Z,11.50
2017-10-27T07:11:17.653Z,11.50
2017-10-27T07:12:20.182Z,11.50
2017-10-27T07:13:22.737Z,11.50
2017-10-27T07:14:25.250Z,11.50
2017-10-27T07:15:27.813Z,11.50
2017-10-27T07:16:31.101Z,11.50
2017-10-27T07:17:33.627Z,11.50
2017-10-27T07:18:36.143Z,11.60
2017-10-27T07:19:38.668Z,11.60
2017-10-27T07:20:41.221Z,11.60
2017-10-27T07:21:43.748Z,11.60
2017-10-27T07:22:46.280Z,11.50
2017-10-27T07:23:49.602Z,11.50
2017-10-27T07:24:52.154Z,11.50
2017-10-27T07:25:54.670Z,11.50
2017-10-27T07:26:57.201Z,11.60
2017-10-27T07:27:59.745Z,11.60
2017-10-27T07:29:02.265Z,11.60
2017-10-27T07:30:04.777Z,11.50
2017-10-27T07:31:07.307Z,11.50
2017-10-27T07:32:09.834Z,11.40
2017-10-27T07:33:12.380Z,11.40
2017-10-27T07:34:14.905Z,11.40
2017-10-27T07:35:17.435Z,11.50
2017-10-27T07:36:19.989Z,11.50
2017-10-27T07:37:22.503Z,11.60
2017-10-27T07:38:25.016Z,11.60
2017-10-27T07:39:27.538Z,11.60
2017-10-27T07:40:30.936Z,11.70
2017-10-27T07:41:34.251Z,11.70
2017-10-27T07:42:36.831Z,11.70
2017-10-27T07:43:39.351Z,11.80
2017-10-27T07:44:42.634Z,11.90
2017-10-27T07:45:45.914Z,11.90
2017-10-27T07:46:49.250Z,11.80
2017-10-27T07:47:51.807Z,11.80
2017-10-27T07:48:54.317Z,11.90
2017-10-27T07:49:56.846Z,11.90
2017-10-27T07:50:59.383Z,12.00
2017-10-27T07:52:01.944Z,11.90
2017-10-27T07:53:05.228Z,11.90
2017-10-27T07:54:08.516Z,11.90
2017-10-27T07:55:11.045Z,11.90
2017-10-27T07:56:13.560Z,11.90
2017-10-27T07:57:16.116Z,11.90
2017-10-27T07:58:18.652Z,11.80
2017-10-27T07:59:21.947Z,11.80
2017-10-27T08:00:25.267Z,11.80
2017-10-27T08:01:27.800Z,11.80
2017-10-27T08:02:31.134Z,11.80
2017-10-27T08:03:33.655Z,11.80
2017-10-27T08:04:37.004Z,11.80
2017-10-27T08:05:39.546Z,11.80
2017-10-27T08:06:42.076Z,11.80
2017-10-27T08:07:44.621Z,11.80
2017-10-27T08:08:47.137Z,11.90
2017-10-27T08:09:49.673Z,11.90
2017-10-27T08:10:52.223Z,11.90
2017-10-27T08:11:55.517Z,11.90
2017-10-27T08:12:58.844Z,12.00
2017-10-27T08:14:01.359Z,12.00
2017-10-27T08:15:04.707Z,12.00
2017-10-27T08:16:07.236Z,12.00
2017-10-27T08:17:09.749Z,12.00
2017-10-27T08:18:12.274Z,12.00
2017-10-27T08:19:14.812Z,12.00
2017-10-27T08:20:18.122Z,12.00
2017-10-27T08:21:20.650Z,12.00
2017-10-27T08:22:23.950Z,12.00
2017-10-27T08:23:27.241Z,12.00
2017-10-27T08:24:29.783Z,12.00
2017-10-27T08:25:32.298Z,12.10
2017-10-27T08:26:34.817Z,12.10
2017-10-27T08:27:38.102Z,12.20
2017-10-27T08:28:41.386Z,12.20
2017-10-27T08:29:44.705Z,12.10
2017-10-27T08:30:47.231Z,12.10
2017-10-27T08:31:49.747Z,12.10
2017-10-27T08:32:52.282Z,12.10
2017-10-27T08:33:55.593Z,12.20
2017-10-27T08:34:58.118Z,12.20
2017-10-27T08:36:01.405Z,12.30
2017-10-27T08:37:04.687Z,12.30
2017-10-27T08:38:08.013Z,12.40
2017-10-27T08:39:10.536Z,12.30
2017-10-27T08:40:13.822Z,12.50
2017-10-27T08:41:17.125Z,12.50
2017-10-27T08:42:26.605Z,12.50
2017-10-27T08:43:29.159Z,12.50
2017-10-27T08:44:31.688Z,12.60
2017-10-27T08:45:34.202Z,12.50
2017-10-27T08:46:36.728Z,12.50
2017-10-27T08:47:39.258Z,12.50
2017-10-27T08:48:42.569Z,12.50
2017-10-27T08:49:45.127Z,12.50
2017-10-27T08:50:47.669Z,12.50
2017-10-27T08:51:50.186Z,12.50
2017-10-27T08:52:52.696Z,12.50
2017-10-27T08:53:55.214Z,12.40
2017-10-27T08:54:57.761Z,12.50
2017-10-27T08:56:00.274Z,12.50
2017-10-27T08:57:02.789Z,12.50
2017-10-27T08:58:05.336Z,12.60
2017-10-27T08:59:08.665Z,12.60
2017-10-27T09:00:11.184Z,12.50
2017-10-27T09:01:14.466Z,12.60
2017-10-27T09:02:17.757Z,12.60
2017-10-27T09:03:21.053Z,12.60
2017-10-27T09:04:23.618Z,12.60
2017-10-27T09:05:26.990Z,12.60
2017-10-27T09:06:30.275Z,12.60
2017-10-27T09:07:33.596Z,12.60
2017-10-27T09:08:36.142Z,12.60
2017-10-27T09:09:38.718Z,12.60
2017-10-27T09:10:41.347Z,12.70
2017-10-27T09:11:43.867Z,12.70
2017-10-27T09:12:46.377Z,12.60
2017-10-27T09:13:48.893Z,12.70
2017-10-27T09:14:51.451Z,12.60
2017-10-27T09:15:53.975Z,12.60
2017-10-27T09:16:56.490Z,12.60
2017-10-27T09:17:59.017Z,12.70
2017-10-27T09:19:02.299Z,12.70
2017-10-27T09:20:04.856Z,12.70
2017-10-27T09:21:07.370Z,12.70
2017-10-27T09:22:09.899Z,12.80
2017-10-27T09:23:13.192Z,12.80
2017-10-27T09:24:16.487Z,12.80
2017-10-27T09:25:19.032Z,12.80
2017-10-27T09:26:22.325Z,12.70
2017-10-27T09:27:25.631Z,12.70
2017-10-27T09:28:28.153Z,12.70
2017-10-27T09:29:30.730Z,12.70
2017-10-27T09:30:34.022Z,12.80
2017-10-27T09:31:37.310Z,12.80
2017-10-27T09:32:40.601Z,12.90
2017-10-27T09:33:43.124Z,12.90
2017-10-27T09:34:45.685Z,12.90
2017-10-27T09:35:48.202Z,13.00
2017-10-27T09:36:50.737Z,13.00
2017-10-27T09:37:53.261Z,13.10
2017-10-27T09:38:55.804Z,13.10
2017-10-27T09:39:58.353Z,13.20
2017-10-27T09:41:01.638Z,13.30
2017-10-27T09:42:04.927Z,13.30
2017-10-27T09:43:08.216Z,13.30
2017-10-27T09:44:10.746Z,13.30
2017-10-27T09:45:13.309Z,13.40
2017-10-27T09:46:15.977Z,13.50
2017-10-27T09:47:18.494Z,13.40
2017-10-27T09:48:21.076Z,13.40
2017-10-27T09:49:23.601Z,13.30
2017-10-27T09:50:26.939Z,13.20
2017-10-27T09:51:29.466Z,13.20
2017-10-27T09:52:31.993Z,13.20
2017-10-27T09:53:34.511Z,13.10
2017-10-27T09:54:37.087Z,13.20
2017-10-27T09:55:39.658Z,13.20
2017-10-27T09:56:42.358Z,13.50
2017-10-27T09:57:44.885Z,13.90
2017-10-27T09:58:47.434Z,14.20
2017-10-27T09:59:49.962Z,14.30
2017-10-27T10:00:52.510Z,14.20
2017-10-27T10:01:55.025Z,14.20
2017-10-27T10:02:58.345Z,14.00
2017-10-27T10:04:01.004Z,14.00
2017-10-27T10:05:03.579Z,14.00
2017-10-27T10:06:06.118Z,13.90
2017-10-27T10:07:08.642Z,13.80
2017-10-27T10:08:11.160Z,13.90
2017-10-27T10:09:13.690Z,14.30
2017-10-27T10:10:17.008Z,14.60
2017-10-27T10:11:19.526Z,14.60
2017-10-27T10:12:22.091Z,14.60
2017-10-27T10:13:24.621Z,14.60
2017-10-27T10:14:27.141Z,14.60
2017-10-27T10:15:29.652Z,14.40
2017-10-27T10:16:32.170Z,14.20
2017-10-27T10:17:35.491Z,13.80
2017-10-27T10:18:38.084Z,13.70
2017-10-27T10:19:41.406Z,13.30
2017-10-27T10:20:44.044Z,13.30
2017-10-27T10:21:46.567Z,13.20
2017-10-27T10:22:49.090Z,13.20
2017-10-27T10:23:51.623Z,13.10
2017-10-27T10:24:54.181Z,13.10
2017-10-27T10:25:56.713Z,13.10
2017-10-27T10:26:59.999Z,13.00
2017-10-27T10:28:03.286Z,13.10
2017-10-27T10:29:06.565Z,13.50
2017-10-27T10:30:09.882Z,14.00
2017-10-27T10:31:12.454Z,14.00
2017-10-27T10:32:14.978Z,14.20
2017-10-27T10:33:18.306Z,14.50
2017-10-27T10:34:20.837Z,14.50
2017-10-27T10:35:23.365Z,14.70
2017-10-27T10:36:25.891Z,15.20
2017-10-27T10:37:28.415Z,15.90
2017-10-27T10:38:30.976Z,16.60
2017-10-27T10:39:33.515Z,17.00
2017-10-27T10:40:36.046Z,17.20
2017-10-27T10:41:38.574Z,17.50
2017-10-27T10:42:41.106Z,17.80
2017-10-27T10:43:43.682Z,18.00
2017-10-27T10:44:46.977Z,18.00
2017-10-27T10:45:49.494Z,17.90
2017-10-27T10:46:52.050Z,17.40
2017-10-27T10:47:55.355Z,16.50
2017-10-27T10:48:57.918Z,16.40
2017-10-27T10:50:00.442Z,16.10
2017-10-27T10:51:02.962Z,15.60
2017-10-27T10:52:05.505Z,15.20
2017-10-27T10:53:08.062Z,14.80
2017-10-27T10:54:11.362Z,14.60
2017-10-27T10:55:13.904Z,14.60
2017-10-27T10:56:17.231Z,14.20
2017-10-27T10:57:19.763Z,14.20
2017-10-27T10:58:23.043Z,14.30
2017-10-27T10:59:26.340Z,14.30
2017-10-27T11:00:28.905Z,14.20
2017-10-27T11:01:31.469Z,14.20
2017-10-27T11:02:34.050Z,14.10
2017-10-27T11:03:36.582Z,14.20
2017-10-27T11:04:39.955Z,14.30
2017-10-27T11:05:42.516Z,14.30
2017-10-27T11:06:45.049Z,14.40
2017-10-27T11:07:47.616Z,14.30
2017-10-27T11:08:50.155Z,14.30
2017-10-27T11:09:52.681Z,14.10
2017-10-27T11:10:55.193Z,14.00
2017-10-27T11:11:57.713Z,13.90
2017-10-27T11:13:00.274Z,13.80
2017-10-27T11:14:02.809Z,13.80
2017-10-27T11:15:05.339Z,13.80
2017-10-27T11:16:08.656Z,14.10
2017-10-27T11:17:11.173Z,14.00
2017-10-27T11:18:13.746Z,14.40
2017-10-27T11:19:17.043Z,14.90
2017-10-27T11:20:19.570Z,14.90
2017-10-27T11:21:22.085Z,15.10
2017-10-27T11:22:24.608Z,15.30
2017-10-27T11:23:27.172Z,15.30
2017-10-27T11:24:29.701Z,15.50
2017-10-27T11:25:32.225Z,15.60
2017-10-27T11:26:35.552Z,15.60
2017-10-27T11:27:38.069Z,15.60
2017-10-27T11:28:40.588Z,15.60
2017-10-27T11:29:43.179Z,15.80
2017-10-27T11:30:45.709Z,16.00
2017-10-27T11:31:48.238Z,16.10
2017-10-27T11:32:50.779Z,15.60
2017-10-27T11:33:53.307Z,15.50
2017-10-27T11:34:55.856Z,15.50
2017-10-27T11:35:59.159Z,15.30
2017-10-27T11:37:01.699Z,15.30
2017-10-27T11:38:04.985Z,15.60
2017-10-27T11:39:08.287Z,15.50
2017-10-27T11:40:10.871Z,15.50
2017-10-27T11:41:13.406Z,15.40
2017-10-27T11:42:15.942Z,15.20
2017-10-27T11:43:18.467Z,15.10
2017-10-27T11:44:21.022Z,15.00
2017-10-27T11:45:23.541Z,14.80
2017-10-27T11:46:26.069Z,14.80
2017-10-27T11:47:28.590Z,14.90
2017-10-27T11:48:31.879Z,14.90
2017-10-27T11:49:35.198Z,14.80
2017-10-27T11:50:37.739Z,14.80
2017-10-27T11:51:40.261Z,14.80
2017-10-27T11:52:42.815Z,14.60
2017-10-27T11:53:45.334Z,14.60
2017-10-27T11:54:47.896Z,14.40
2017-10-27T11:55:51.362Z,14.20
2017-10-27T11:56:53.877Z,14.10
2017-10-27T11:57:56.390Z,14.00
2017-10-27T11:58:58.928Z,14.00
2017-10-27T12:00:01.485Z,14.10
2017-10-27T12:01:04.027Z,14.30
2017-10-27T12:02:06.552Z,14.30
2017-10-27T12:03:09.081Z,14.40
2017-10-27T12:04:11.602Z,14.60
2017-10-27T12:05:14.924Z,15.50
2017-10-27T12:06:17.451Z,15.50
2017-10-27T12:07:20.733Z,16.80
2017-10-27T12:08:24.017Z,17.00
2017-10-27T12:09:27.311Z,17.20
2017-10-27T12:10:29.870Z,17.20
2017-10-27T12:11:32.415Z,17.10
2017-10-27T12:12:34.932Z,17.10
2017-10-27T12:13:37.471Z,17.50
2017-10-27T12:14:40.043Z,17.40
2017-10-27T12:15:42.601Z,17.00
2017-10-27T12:16:46.014Z,16.70
2017-10-27T12:17:48.557Z,16.70
2017-10-27T12:18:51.853Z,15.80
2017-10-27T12:19:54.389Z,15.70
2017-10-27T12:20:56.960Z,15.50
2017-10-27T12:21:59.487Z,15.50
2017-10-27T12:23:02.917Z,15.90
2017-10-27T12:24:06.202Z,16.10
2017-10-27T12:25:09.489Z,16.20
2017-10-27T12:26:12.809Z,16.30
2017-10-27T12:27:15.384Z,16.20
2017-10-27T12:28:17.906Z,16.00
2017-10-27T12:29:20.439Z,16.10
2017-10-27T12:30:22.967Z,15.90
2017-10-27T12:31:25.516Z,15.80
2017-10-27T12:32:28.034Z,15.70
2017-10-27T12:33:30.560Z,15.40
2017-10-27T12:34:33.085Z,15.20
2017-10-27T12:35:35.599Z,15.10
2017-10-27T12:36:38.149Z,15.00
2017-10-27T12:37:40.675Z,14.80
2017-10-27T12:38:43.186Z,14.80
2017-10-27T12:39:45.713Z,14.70
2017-10-27T12:40:48.235Z,14.70
2017-10-27T12:41:50.800Z,14.70
2017-10-27T12:42:53.321Z,14.50
2017-10-27T12:43:56.627Z,14.40
2017-10-27T12:44:59.151Z,14.40
2017-10-27T12:46:01.670Z,14.40
2017-10-27T12:47:04.236Z,14.30
2017-10-27T12:48:06.762Z,14.30
2017-10-27T12:49:09.301Z,14.20
2017-10-27T12:50:11.833Z,14.10
2017-10-27T12:51:14.367Z,14.10
2017-10-27T12:52:17.695Z,14.10
2017-10-27T12:53:20.228Z,14.10
2017-10-27T12:54:23.526Z,14.20
2017-10-27T12:55:26.063Z,14.10
2017-10-27T12:56:29.351Z,14.20
2017-10-27T12:57:32.701Z,14.20
2017-10-27T12:58:35.251Z,14.20
2017-10-27T12:59:37.775Z,14.30
2017-10-27T13:00:41.075Z,14.30
2017-10-27T13:01:43.642Z,14.30
2017-10-27T13:02:46.165Z,14.30
2017-10-27T13:03:48.900Z,14.30
2017-10-27T13:04:51.669Z,14.30
2017-10-27T13:05:54.238Z,14.20
2017-10-27T13:06:56.801Z,14.20
2017-10-27T13:07:59.334Z,14.20
2017-10-27T13:09:02.639Z,14.20
2017-10-27T13:10:05.167Z,14.10
2017-10-27T13:11:07.695Z,14.10
2017-10-27T13:12:10.255Z,14.10
2017-10-27T13:13:12.776Z,14.10
2017-10-27T13:14:16.066Z,14.00
2017-10-27T13:15:19.393Z,14.10
